Time;durP1;ratioP1;P1;durP2;ratioP2;P2;SDS_P1;SDS_P2;PMS_P1;PMS_P2;Temp;Humidity;BMP_temperature;BMP_pressure;BME280_temperature;BME280_humidity;BME280_pressure;Samples;Min_cycle;Max_cycle;Signal;HPM_P1;HPM_P2
2021/12/27 00:02:05;;;;;;;90.82;58.75;;;3.40;99.90;;;;;;6103737;23;20147;-85
2021/12/27 00:04:31;;;;;;;96.63;70.20;;;3.50;99.90;;;;;;6128827;23;20182;-85
2021/12/27 00:07:10;;;;;;;98.72;77.07;;;3.50;99.90;;;;;;6127747;23;20143;-85
2021/12/27 00:09:48;;;;;;;97.15;56.60;;;3.50;99.90;;;;;;6101665;23;20154;-85
2021/12/27 00:12:31;;;;;;;92.72;61.70;;;3.50;99.90;;;;;;6101978;23;20476;-86
2021/12/27 00:14:56;;;;;;;93.97;60.10;;;3.50;99.90;;;;;;6102070;23;20170;-85
2021/12/27 00:17:31;;;;;;;100.13;66.17;;;3.50;99.90;;;;;;6128090;23;20188;-85
2021/12/27 00:19:57;;;;;;;94.50;64.60;;;3.50;99.90;;;;;;6128464;23;20194;-85
2021/12/27 00:22:23;;;;;;;101.20;70.23;;;3.50;99.90;;;;;;6126615;23;20155;-85
2021/12/27 00:24:50;;;;;;;96.70;71.28;;;3.50;99.90;;;;;;6102944;23;20841;-85
2021/12/27 00:27:16;;;;;;;132.40;119.50;;;3.50;99.90;;;;;;6104774;23;20155;-85
2021/12/27 00:29:43;;;;;;;98.03;61.38;;;3.50;99.90;;;;;;6104714;23;20458;-85
2021/12/27 00:32:09;;;;;;;103.13;83.75;;;3.50;99.90;;;;;;6130133;23;20221;-85
2021/12/27 00:34:41;;;;;;;91.67;60.53;;;3.60;99.90;;;;;;6102434;23;20224;-85
2021/12/27 00:37:09;;;;;;;92.07;56.28;;;3.60;99.90;;;;;;6129647;23;20712;-85
2021/12/27 00:39:36;;;;;;;94.93;66.80;;;3.60;99.90;;;;;;6129929;23;20150;-85
2021/12/27 00:42:03;;;;;;;95.13;54.38;;;3.60;99.90;;;;;;6103300;23;20151;-85
2021/12/27 00:44:28;;;;;;;89.75;52.88;;;3.70;99.90;;;;;;6130301;23;20158;-85
2021/12/27 00:46:57;;;;;;;90.63;51.93;;;3.70;99.90;;;;;;6121087;23;20221;-86
2021/12/27 00:49:29;;;;;;;89.30;49.95;;;3.70;99.90;;;;;;6099990;23;20173;-85
2021/12/27 00:51:55;;;;;;;103.60;70.03;;;3.80;99.90;;;;;;6099935;23;20147;-85
2021/12/27 00:54:24;;;;;;;89.77;49.93;;;3.70;99.90;;;;;;6099447;23;20227;-85
2021/12/27 00:56:50;;;;;;;100.30;67.78;;;3.70;99.90;;;;;;6126312;23;20414;-85
2021/12/27 00:59:19;;;;;;;89.32;54.70;;;3.70;99.90;;;;;;6125535;23;20135;-87
2021/12/27 01:02:00;;;;;;;88.22;51.92;;;3.80;99.90;;;;;;6125429;23;20139;-87
2021/12/27 01:04:40;;;;;;;92.68;50.22;;;3.80;99.90;;;;;;6125853;23;20163;-87
2021/12/27 01:07:13;;;;;;;90.60;53.58;;;3.80;99.90;;;;;;6126398;23;20171;-87
2021/12/27 01:09:58;;;;;;;88.22;53.17;;;3.80;99.90;;;;;;6129945;23;20127;-88
2021/12/27 01:18:01;;;;;;;90.78;50.13;;;3.90;99.90;;;;;;6089527;23;20182;-88
2021/12/27 01:20:29;;;;;;;87.72;49.63;;;3.90;99.90;;;;;;6129491;23;20142;-87
2021/12/27 01:22:56;;;;;;;88.68;54.65;;;3.90;99.90;;;;;;6130113;23;20480;-87
2021/12/27 01:25:27;;;;;;;89.25;46.33;;;3.80;99.90;;;;;;6104282;23;20530;-87
2021/12/27 01:27:53;;;;;;;92.88;61.28;;;3.90;99.90;;;;;;6104223;23;20147;-87
2021/12/27 01:30:21;;;;;;;93.22;58.30;;;3.90;99.90;;;;;;6124561;23;20197;-86
2021/12/27 01:32:58;;;;;;;89.22;53.42;;;3.90;99.90;;;;;;6101278;23;20162;-86
2021/12/27 01:35:25;;;;;;;87.07;51.05;;;3.90;99.90;;;;;;6101659;23;20532;-86
2021/12/27 01:37:56;;;;;;;91.63;50.83;;;3.90;99.90;;;;;;6126901;23;20722;-86
2021/12/27 01:40:25;;;;;;;90.63;54.53;;;3.90;99.90;;;;;;6100189;23;20170;-87
2021/12/27 01:43:20;;;;;;;89.82;57.30;;;3.90;99.90;;;;;;6125515;23;20584;-87
2021/12/27 01:46:00;;;;;;;88.10;46.47;;;3.90;99.90;;;;;;6125263;23;20159;-86
2021/12/27 01:48:38;;;;;;;86.97;47.95;;;3.90;99.90;;;;;;6126413;23;20131;-85
2021/12/27 01:51:10;;;;;;;89.22;50.72;;;3.90;99.90;;;;;;6126255;23;20155;-85
2021/12/27 01:53:41;;;;;;;90.85;55.45;;;3.90;99.90;;;;;;6126574;23;20209;-86
2021/12/27 01:56:11;;;;;;;89.95;53.45;;;3.90;99.90;;;;;;6126656;23;20204;-87
2021/12/27 01:58:37;;;;;;;87.57;49.20;;;3.90;99.90;;;;;;6125917;23;20234;-86
2021/12/27 02:01:08;;;;;;;90.88;50.15;;;3.90;99.90;;;;;;6126051;23;20146;-86
2021/12/27 02:03:35;;;;;;;91.05;55.22;;;3.90;99.90;;;;;;6100290;23;20177;-85
2021/12/27 02:06:01;;;;;;;88.28;52.90;;;3.90;99.90;;;;;;6126028;23;20179;-87
2021/12/27 02:08:28;;;;;;;91.90;54.23;;;3.90;99.90;;;;;;6100754;23;20158;-87
2021/12/27 02:10:54;;;;;;;87.55;49.58;;;3.90;99.90;;;;;;6126125;23;20942;-87
2021/12/27 02:13:20;;;;;;;97.25;56.85;;;3.90;99.90;;;;;;6125568;23;20163;-85
2021/12/27 02:15:52;;;;;;;95.03;53.47;;;3.90;99.90;;;;;;6125126;23;20591;-85
2021/12/27 02:18:33;;;;;;;88.22;45.75;;;3.90;99.90;;;;;;6099200;23;20225;-85
2021/12/27 02:21:01;;;;;;;88.68;45.70;;;4.00;99.90;;;;;;6098814;23;20146;-85
2021/12/27 02:23:41;;;;;;;88.03;48.13;;;4.00;99.90;;;;;;6124562;23;20237;-85
2021/12/27 02:26:26;;;;;;;86.40;43.88;;;4.00;99.90;;;;;;6098956;23;20154;-85
2021/12/27 02:29:24;;;;;;;86.95;44.85;;;4.00;99.90;;;;;;6099014;23;20174;-86
2021/12/27 02:31:51;;;;;;;87.78;50.15;;;4.00;99.90;;;;;;6125545;23;20158;-85
2021/12/27 02:34:26;;;;;;;87.15;47.05;;;4.00;99.90;;;;;;6098842;23;20170;-86
2021/12/27 02:36:57;;;;;;;84.78;41.97;;;4.10;99.90;;;;;;6100222;23;20177;-85
2021/12/27 02:39:26;;;;;;;90.13;55.20;;;4.00;99.90;;;;;;6101182;23;20189;-86
2021/12/27 02:41:52;;;;;;;88.45;49.40;;;4.00;99.90;;;;;;6126229;23;20142;-85
2021/12/27 02:44:21;;;;;;;85.03;46.45;;;4.00;99.90;;;;;;6100736;23;20170;-86
2021/12/27 02:46:53;;;;;;;84.68;44.85;;;4.10;99.90;;;;;;6100605;23;20170;-87
2021/12/27 02:49:19;;;;;;;90.35;46.42;;;4.10;99.90;;;;;;6127171;23;20135;-87
2021/12/27 02:51:47;;;;;;;87.53;45.23;;;4.10;99.90;;;;;;6131982;23;20615;-88
2021/12/27 02:54:13;;;;;;;87.25;46.70;;;4.00;99.90;;;;;;6106438;23;20534;-87
2021/12/27 02:56:42;;;;;;;87.57;48.60;;;4.00;99.90;;;;;;6104762;23;20249;-87
2021/12/27 02:59:10;;;;;;;89.30;48.80;;;4.00;99.90;;;;;;6105717;23;20185;-87
2021/12/27 03:01:39;;;;;;;87.30;49.55;;;4.00;99.90;;;;;;6105566;23;20147;-87
2021/12/27 03:04:08;;;;;;;89.18;48.97;;;4.00;99.90;;;;;;6105095;23;20193;-87
2021/12/27 03:06:33;;;;;;;91.60;50.08;;;4.00;99.90;;;;;;6129388;23;20139;-87
2021/12/27 03:08:59;;;;;;;86.90;46.00;;;4.00;99.90;;;;;;6103931;23;20206;-87
2021/12/27 03:11:25;;;;;;;92.32;58.63;;;4.00;99.90;;;;;;6104514;23;20182;-86
2021/12/27 03:13:55;;;;;;;92.07;56.40;;;4.00;99.90;;;;;;6104161;23;20197;-87
2021/12/27 03:16:25;;;;;;;88.55;44.35;;;4.00;99.90;;;;;;6104008;23;20440;-87
2021/12/27 03:18:53;;;;;;;84.45;42.83;;;4.00;99.90;;;;;;6079145;23;20221;-86
2021/12/27 03:21:22;;;;;;;85.20;43.58;;;4.00;99.90;;;;;;6126115;23;20196;-86
2021/12/27 03:23:51;;;;;;;84.68;37.20;;;4.10;99.90;;;;;;6126367;23;20162;-86
2021/12/27 03:26:17;;;;;;;87.32;42.70;;;4.10;99.90;;;;;;6127283;23;20139;-86
2021/12/27 03:28:43;;;;;;;85.30;46.97;;;4.10;99.90;;;;;;6125686;23;20147;-87
2021/12/27 03:31:11;;;;;;;84.63;39.70;;;4.10;99.90;;;;;;6125799;23;20371;-86
2021/12/27 03:33:37;;;;;;;88.50;45.17;;;4.10;99.90;;;;;;6099706;23;20398;-86
2021/12/27 03:36:08;;;;;;;83.43;42.80;;;4.10;99.90;;;;;;6126531;23;20166;-86
2021/12/27 03:38:39;;;;;;;83.38;43.33;;;4.10;99.90;;;;;;6101442;23;20587;-87
2021/12/27 03:41:07;;;;;;;87.10;41.08;;;4.10;99.90;;;;;;6100862;23;20143;-86
2021/12/27 03:43:35;;;;;;;94.43;45.03;;;4.10;99.90;;;;;;6100031;23;20167;-87
2021/12/27 03:46:01;;;;;;;84.80;38.13;;;4.10;99.90;;;;;;6125642;23;20610;-87
2021/12/27 03:48:28;;;;;;;85.25;45.97;;;4.10;99.90;;;;;;6125659;23;20157;-87
2021/12/27 03:50:54;;;;;;;85.47;37.17;;;4.10;99.90;;;;;;6125289;23;20149;-87
2021/12/27 03:53:20;;;;;;;84.57;41.15;;;4.20;99.90;;;;;;6125312;23;20237;-85
2021/12/27 03:55:45;;;;;;;90.10;46.17;;;4.10;99.90;;;;;;6125180;23;20166;-86
2021/12/27 03:58:23;;;;;;;85.90;41.77;;;4.20;99.90;;;;;;6099703;23;20458;-85
2021/12/27 04:01:14;;;;;;;83.80;39.55;;;4.20;99.90;;;;;;6125627;23;20213;-85
2021/12/27 04:03:46;;;;;;;86.47;37.47;;;4.20;99.90;;;;;;6126207;23;20165;-86
2021/12/27 04:06:22;;;;;;;85.20;42.60;;;4.20;99.90;;;;;;6126455;23;20147;-86
2021/12/27 04:08:52;;;;;;;83.55;38.03;;;4.30;99.90;;;;;;6100500;23;20151;-85
2021/12/27 04:11:18;;;;;;;85.22;36.65;;;4.30;99.90;;;;;;6126550;23;20153;-85
2021/12/27 04:13:47;;;;;;;81.28;37.92;;;4.30;99.90;;;;;;6126419;23;20211;-85
2021/12/27 04:16:12;;;;;;;87.03;42.40;;;4.30;99.90;;;;;;6126738;23;20202;-85
2021/12/27 04:18:54;;;;;;;85.30;39.63;;;4.20;99.90;;;;;;6100929;23;20173;-85
2021/12/27 04:21:20;;;;;;;85.72;39.80;;;4.30;99.90;;;;;;6127305;23;20357;-85
2021/12/27 04:23:51;;;;;;;87.00;48.43;;;4.30;99.90;;;;;;6100820;23;20504;-86
2021/12/27 04:26:20;;;;;;;87.53;48.47;;;4.30;99.90;;;;;;6126742;23;20361;-85
2021/12/27 04:28:48;;;;;;;83.85;40.42;;;4.20;99.90;;;;;;6101782;23;20184;-86
2021/12/27 04:31:14;;;;;;;89.30;41.28;;;4.30;99.90;;;;;;6102138;23;20151;-87
2021/12/27 04:33:42;;;;;;;90.88;49.80;;;4.30;99.90;;;;;;6131631;23;20205;-87
2021/12/27 04:36:08;;;;;;;85.63;40.95;;;4.30;99.90;;;;;;6104913;23;20171;-87
2021/12/27 04:38:35;;;;;;;84.87;44.67;;;4.30;99.90;;;;;;6130581;23;20142;-87
2021/12/27 04:41:07;;;;;;;87.93;42.35;;;4.30;99.90;;;;;;6129862;23;20142;-87
2021/12/27 04:43:36;;;;;;;91.15;51.85;;;4.30;99.90;;;;;;6129119;23;20591;-87
2021/12/27 04:46:04;;;;;;;95.05;68.93;;;4.30;99.90;;;;;;6129576;23;20158;-87
2021/12/27 04:48:35;;;;;;;91.95;56.58;;;4.30;99.90;;;;;;6103440;23;20181;-86
2021/12/27 04:51:07;;;;;;;95.78;63.95;;;4.30;99.90;;;;;;6102459;23;20649;-87
2021/12/27 04:53:38;;;;;;;88.90;45.00;;;4.30;99.90;;;;;;6128309;23;20162;-87
2021/12/27 04:56:07;;;;;;;88.72;41.83;;;4.30;99.90;;;;;;6103086;23;20175;-87
2021/12/27 04:58:33;;;;;;;83.85;44.10;;;4.30;99.90;;;;;;6127650;23;20610;-87
2021/12/27 05:00:59;;;;;;;84.80;42.87;;;4.30;99.90;;;;;;6128862;23;20214;-87
2021/12/27 05:03:34;;;;;;;86.70;44.42;;;4.30;99.90;;;;;;6129874;23;20383;-87
2021/12/27 05:05:59;;;;;;;91.15;51.95;;;4.30;99.90;;;;;;6104599;23;20482;-86
2021/12/27 05:08:41;;;;;;;89.77;54.80;;;4.30;99.90;;;;;;6129464;23;20143;-87
2021/12/27 05:11:10;;;;;;;87.60;49.05;;;4.30;99.90;;;;;;6101170;23;20139;-85
2021/12/27 05:13:37;;;;;;;85.00;43.92;;;4.30;99.90;;;;;;6100775;23;20546;-86
2021/12/27 05:16:03;;;;;;;87.38;42.55;;;4.30;99.90;;;;;;6100539;23;20178;-85
2021/12/27 05:18:30;;;;;;;83.28;38.55;;;4.30;99.90;;;;;;6100398;23;20154;-86
2021/12/27 05:20:59;;;;;;;86.90;42.97;;;4.30;99.90;;;;;;6100103;23;20147;-87
2021/12/27 05:23:30;;;;;;;84.88;46.83;;;4.30;99.90;;;;;;6100981;23;20177;-86
2021/12/27 05:25:59;;;;;;;84.55;40.55;;;4.30;99.90;;;;;;6101678;23;20257;-87
2021/12/27 05:28:25;;;;;;;84.43;40.70;;;4.30;99.90;;;;;;6100656;23;20186;-86
2021/12/27 05:30:57;;;;;;;85.43;41.28;;;4.30;99.90;;;;;;6100152;23;20202;-85
2021/12/27 05:33:30;;;;;;;84.13;38.05;;;4.30;99.90;;;;;;6099698;23;20253;-86
2021/12/27 05:35:59;;;;;;;89.18;42.60;;;4.30;99.90;;;;;;6125387;23;20219;-86
2021/12/27 05:38:31;;;;;;;84.75;42.17;;;4.30;99.90;;;;;;6101177;23;20197;-86
2021/12/27 05:40:57;;;;;;;85.75;41.20;;;4.30;99.90;;;;;;6126804;23;20165;-86
2021/12/27 05:43:27;;;;;;;83.40;40.97;;;4.30;99.90;;;;;;6125042;23;20175;-85
2021/12/27 05:46:03;;;;;;;;;;;;;;;;;;;;;
2021/12/27 05:48:31;;;;;;;87.40;47.00;;;4.40;99.90;;;;;;6125916;23;20205;-86
2021/12/27 05:50:57;;;;;;;90.00;60.40;;;4.40;99.90;;;;;;6099328;23;20143;-85
2021/12/27 05:53:23;;;;;;;81.87;35.93;;;4.30;99.90;;;;;;6124451;23;20175;-86
2021/12/27 05:55:51;;;;;;;86.85;39.65;;;4.40;99.90;;;;;;6098836;23;20879;-85
2021/12/27 05:58:17;;;;;;;82.45;40.03;;;4.40;99.90;;;;;;6100607;23;20192;-85
2021/12/27 06:00:43;;;;;;;91.10;46.35;;;4.40;99.90;;;;;;6100239;23;20157;-86
2021/12/27 06:03:09;;;;;;;87.70;45.40;;;4.50;99.90;;;;;;6100116;23;20150;-86
2021/12/27 06:05:35;;;;;;;82.67;39.77;;;4.40;99.90;;;;;;6126726;23;20195;-86
2021/12/27 06:08:06;;;;;;;83.27;41.13;;;4.50;99.90;;;;;;6126529;23;20599;-86
2021/12/27 06:10:32;;;;;;;85.60;42.90;;;4.50;99.90;;;;;;6100386;23;20453;-86
2021/12/27 06:13:01;;;;;;;81.20;32.40;;;4.50;99.90;;;;;;6102460;23;20166;-88
2021/12/27 06:15:27;;;;;;;84.60;38.67;;;4.50;99.90;;;;;;6102381;23;20378;-87
2021/12/27 06:17:55;;;;;;;82.45;33.85;;;4.50;99.90;;;;;;6126789;23;20174;-87
2021/12/27 06:20:27;;;;;;;82.22;37.13;;;4.50;99.90;;;;;;6132465;23;20146;-88
2021/12/27 06:22:58;;;;;;;83.50;32.42;;;4.50;99.90;;;;;;6107280;23;20143;-88
2021/12/27 06:25:27;;;;;;;80.88;30.27;;;4.50;99.90;;;;;;6133732;23;20138;-87
2021/12/27 06:27:53;;;;;;;87.47;42.92;;;4.50;99.90;;;;;;6133991;23;20169;-87
2021/12/27 06:30:20;;;;;;;83.03;41.08;;;4.50;99.90;;;;;;6109141;23;20151;-87
2021/12/27 06:32:46;;;;;;;89.93;50.60;;;4.50;99.90;;;;;;6109138;23;20151;-88
2021/12/27 06:35:14;;;;;;;81.82;40.35;;;4.50;99.90;;;;;;6132692;23;20579;-86
2021/12/27 06:37:42;;;;;;;86.70;44.30;;;4.50;99.90;;;;;;6105573;23;20188;-87
2021/12/27 06:40:13;;;;;;;83.38;39.17;;;4.50;99.90;;;;;;6130648;23;20224;-87
2021/12/27 06:42:45;;;;;;;79.07;33.40;;;4.50;99.90;;;;;;6104921;23;20138;-87
2021/12/27 06:45:15;;;;;;;78.90;26.92;;;4.50;99.90;;;;;;6123110;23;20198;-85
2021/12/27 06:47:41;;;;;;;81.00;29.02;;;4.50;99.90;;;;;;6105759;23;20198;-85
2021/12/27 06:50:09;;;;;;;79.73;31.23;;;4.40;99.90;;;;;;6105275;23;20157;-85
2021/12/27 06:52:35;;;;;;;81.53;33.10;;;4.40;99.90;;;;;;6104365;23;20464;-85
2021/12/27 06:55:01;;;;;;;81.13;32.65;;;4.40;99.90;;;;;;6130531;23;20535;-85
2021/12/27 06:57:26;;;;;;;81.23;35.47;;;4.30;99.90;;;;;;6131493;23;20232;-86
2021/12/27 06:59:52;;;;;;;83.73;36.37;;;4.40;99.90;;;;;;6105953;23;20167;-86
2021/12/27 07:02:18;;;;;;;82.13;31.00;;;4.40;99.90;;;;;;6106889;23;20217;-85
2021/12/27 07:04:44;;;;;;;82.43;34.85;;;4.40;99.90;;;;;;6106736;23;20171;-85
2021/12/27 07:07:09;;;;;;;81.07;37.83;;;4.50;99.90;;;;;;6105927;23;20157;-86
2021/12/27 07:09:35;;;;;;;82.03;33.93;;;4.40;99.90;;;;;;6106125;23;20162;-86
2021/12/27 07:12:01;;;;;;;80.97;35.00;;;4.40;99.90;;;;;;6105883;23;20151;-86
2021/12/27 07:14:27;;;;;;;80.60;32.03;;;4.50;99.90;;;;;;6131550;23;20417;-86
2021/12/27 07:16:52;;;;;;;81.70;30.17;;;4.50;99.90;;;;;;6131422;23;20233;-86
2021/12/27 07:19:18;;;;;;;81.47;30.47;;;4.40;99.90;;;;;;6132055;23;20576;-85
2021/12/27 07:21:44;;;;;;;82.47;33.97;;;4.40;99.90;;;;;;6105009;23;20147;-86
2021/12/27 07:24:12;;;;;;;81.30;33.37;;;4.40;99.90;;;;;;6105776;23;20650;-85
2021/12/27 07:26:38;;;;;;;80.13;31.27;;;4.40;99.90;;;;;;6105539;23;20151;-86
2021/12/27 07:29:03;;;;;;;82.20;33.70;;;4.30;99.90;;;;;;6130380;23;20215;-85
2021/12/27 07:31:32;;;;;;;81.63;26.53;;;4.30;99.90;;;;;;6131176;23;20476;-86
2021/12/27 07:34:00;;;;;;;79.20;27.13;;;4.20;99.90;;;;;;6105975;23;20277;-85
2021/12/27 07:36:29;;;;;;;79.85;31.55;;;4.20;99.90;;;;;;6132633;23;20489;-85
2021/12/27 07:38:55;;;;;;;79.70;29.98;;;4.20;99.90;;;;;;6132416;23;20162;-86
2021/12/27 07:41:22;;;;;;;80.57;28.70;;;4.20;99.90;;;;;;6106488;23;20155;-85
2021/12/27 07:43:48;;;;;;;84.88;31.15;;;4.20;99.90;;;;;;6105318;23;20250;-86
2021/12/27 07:46:13;;;;;;;83.77;35.40;;;4.20;99.90;;;;;;6129979;23;20654;-87
2021/12/27 07:48:39;;;;;;;80.80;34.97;;;4.30;99.90;;;;;;6103634;23;20390;-85
2021/12/27 07:51:05;;;;;;;80.97;34.33;;;4.30;99.90;;;;;;6126386;23;20151;-86
2021/12/27 07:53:30;;;;;;;85.67;41.27;;;4.30;99.90;;;;;;6128740;23;20608;-86
2021/12/27 07:55:57;;;;;;;86.30;44.80;;;4.40;99.90;;;;;;6102870;23;20153;-86
2021/12/27 07:58:23;;;;;;;86.03;35.22;;;4.40;99.90;;;;;;6129897;23;20139;-86
2021/12/27 08:00:50;;;;;;;83.20;37.30;;;4.50;99.90;;;;;;6103514;23;20461;-86
2021/12/27 08:03:19;;;;;;;90.95;57.42;;;4.50;99.90;;;;;;6127719;23;20612;-86
2021/12/27 08:05:45;;;;;;;85.40;43.97;;;4.60;99.90;;;;;;6128779;23;20588;-86
2021/12/27 08:08:10;;;;;;;88.53;59.63;;;4.60;99.90;;;;;;6129048;23;20637;-85
2021/12/27 08:10:36;;;;;;;85.60;42.43;;;4.60;99.90;;;;;;6129796;23;20142;-87
2021/12/27 08:13:02;;;;;;;88.73;51.83;;;4.60;99.90;;;;;;6103250;23;20143;-86
2021/12/27 08:15:28;;;;;;;87.13;39.53;;;4.70;99.90;;;;;;6103443;23;20383;-87
2021/12/27 08:17:54;;;;;;;86.10;43.83;;;4.70;99.90;;;;;;6129919;23;20417;-87
2021/12/27 08:20:19;;;;;;;86.27;48.77;;;4.70;99.90;;;;;;6104140;23;20402;-86
2021/12/27 08:22:45;;;;;;;87.70;44.43;;;4.70;99.90;;;;;;6104344;23;20147;-86
2021/12/27 08:25:11;;;;;;;82.63;39.27;;;4.80;99.90;;;;;;6129579;23;20169;-86
2021/12/27 08:27:39;;;;;;;87.93;44.80;;;4.80;99.90;;;;;;6104095;23;20387;-87
2021/12/27 08:30:06;;;;;;;85.80;42.10;;;4.90;99.90;;;;;;6104061;23;20466;-87
2021/12/27 08:32:33;;;;;;;86.78;35.38;;;4.90;99.90;;;;;;6128883;23;20147;-86
2021/12/27 08:35:01;;;;;;;79.53;29.70;;;4.90;99.90;;;;;;6103329;23;20171;-86
2021/12/27 08:37:30;;;;;;;80.55;28.73;;;4.90;99.90;;;;;;6103569;23;20650;-87
2021/12/27 08:39:57;;;;;;;83.32;35.22;;;4.90;99.90;;;;;;6103826;23;20158;-86
2021/12/27 08:42:23;;;;;;;83.00;33.92;;;4.90;99.90;;;;;;6101856;23;20155;-86
2021/12/27 08:44:49;;;;;;;87.13;37.17;;;4.90;99.90;;;;;;6102135;23;20174;-86
2021/12/27 08:47:16;;;;;;;82.10;33.90;;;4.90;99.90;;;;;;6056982;23;1162810;-86
2021/12/27 08:49:45;;;;;;;83.65;37.72;;;4.90;99.90;;;;;;6131953;23;20192;-86
2021/12/27 08:52:11;;;;;;;81.93;28.20;;;5.00;99.90;;;;;;6131089;23;20449;-86
2021/12/27 08:54:37;;;;;;;80.93;33.42;;;5.00;99.90;;;;;;6105083;23;20265;-85
2021/12/27 08:57:05;;;;;;;83.20;27.95;;;5.00;99.90;;;;;;6130988;23;20477;-86
2021/12/27 08:59:32;;;;;;;86.60;32.72;;;5.00;99.90;;;;;;6104510;23;20147;-85
2021/12/27 09:01:58;;;;;;;84.13;40.58;;;5.00;99.90;;;;;;6103021;23;20143;-85
2021/12/27 09:04:24;;;;;;;88.65;45.97;;;5.00;99.90;;;;;;6129901;23;20158;-85
2021/12/27 09:06:50;;;;;;;83.50;39.20;;;5.00;99.90;;;;;;6129715;23;20154;-86
2021/12/27 09:09:16;;;;;;;91.35;52.53;;;5.00;99.90;;;;;;6130363;23;20151;-86
2021/12/27 09:11:45;;;;;;;98.27;44.77;;;5.10;99.90;;;;;;6130247;23;20143;-86
2021/12/27 09:14:12;;;;;;;88.25;52.78;;;5.10;99.90;;;;;;6103775;23;20540;-84
2021/12/27 09:16:38;;;;;;;94.32;69.55;;;5.10;99.90;;;;;;6103002;23;20228;-86
2021/12/27 09:19:04;;;;;;;90.43;57.23;;;5.10;99.90;;;;;;6105533;23;20147;-85
2021/12/27 09:21:29;;;;;;;87.87;54.03;;;5.20;99.90;;;;;;6105760;23;20150;-85
2021/12/27 09:23:55;;;;;;;90.70;56.23;;;5.20;99.90;;;;;;6130305;23;20378;-86
2021/12/27 09:26:21;;;;;;;89.63;57.00;;;5.20;99.90;;;;;;6105443;23;20165;-85
2021/12/27 09:28:47;;;;;;;93.60;58.97;;;5.20;99.90;;;;;;6131338;23;20409;-85
2021/12/27 09:31:12;;;;;;;93.33;60.07;;;5.20;99.90;;;;;;6105567;23;20465;-86
2021/12/27 09:33:38;;;;;;;89.67;54.93;;;5.30;99.90;;;;;;6130952;23;20163;-86
2021/12/27 09:36:04;;;;;;;88.67;52.93;;;5.30;99.90;;;;;;6105592;23;20185;-86
2021/12/27 09:38:30;;;;;;;93.82;70.38;;;5.30;99.90;;;;;;6130830;23;20165;-85
2021/12/27 09:40:55;;;;;;;93.07;55.77;;;5.30;99.90;;;;;;6105330;23;20155;-85
2021/12/27 09:43:22;;;;;;;91.47;54.63;;;5.40;99.90;;;;;;6104600;23;20177;-85
2021/12/27 09:45:48;;;;;;;92.47;55.30;;;5.40;99.90;;;;;;6105534;23;20166;-86
2021/12/27 09:48:14;;;;;;;90.93;58.03;;;5.40;99.90;;;;;;6131939;23;20150;-86
2021/12/27 09:50:46;;;;;;;90.80;58.73;;;5.50;99.90;;;;;;6132530;23;20139;-86
2021/12/27 09:53:12;;;;;;;92.80;61.75;;;5.60;99.90;;;;;;6106443;23;20374;-86
2021/12/27 09:55:40;;;;;;;89.00;59.20;;;5.60;99.90;;;;;;6133119;23;20193;-86
2021/12/27 09:58:06;;;;;;;105.75;90.72;;;5.60;99.90;;;;;;6106216;23;20182;-86
2021/12/27 10:00:34;;;;;;;98.27;68.23;;;5.70;99.90;;;;;;6106093;23;20147;-86
2021/12/27 10:03:00;;;;;;;91.95;62.40;;;5.70;99.90;;;;;;6131251;23;20176;-85
2021/12/27 10:05:27;;;;;;;101.15;79.85;;;5.80;99.90;;;;;;6132378;23;20150;-86
2021/12/27 10:07:54;;;;;;;96.25;68.35;;;5.90;99.90;;;;;;6107089;23;20548;-85
2021/12/27 10:10:21;;;;;;;95.40;64.05;;;5.90;99.90;;;;;;6132734;23;20143;-86
2021/12/27 10:12:48;;;;;;;101.05;80.28;;;6.00;99.90;;;;;;6107534;23;20150;-86
2021/12/27 10:15:17;;;;;;;105.30;92.80;;;6.10;99.90;;;;;;6108263;23;20235;-86
2021/12/27 10:17:43;;;;;;;96.50;78.65;;;6.20;99.90;;;;;;6106791;23;20179;-86
2021/12/27 10:20:15;;;;;;;96.07;74.55;;;6.30;99.90;;;;;;6133207;23;20188;-86
2021/12/27 10:22:43;;;;;;;99.45;80.03;;;6.40;99.90;;;;;;6108222;23;20147;-86
2021/12/27 10:25:23;;;;;;;230.65;214.10;;;6.50;99.90;;;;;;6108166;23;20166;-86
2021/12/27 10:27:53;;;;;;;97.85;74.95;;;6.60;99.90;;;;;;6133189;23;20206;-86
2021/12/27 10:30:20;;;;;;;94.18;67.93;;;6.70;99.90;;;;;;6132360;23;20143;-87
2021/12/27 10:33:07;;;;;;;94.55;70.80;;;6.80;99.90;;;;;;6107246;23;20157;-86
2021/12/27 10:35:42;;;;;;;101.10;70.05;;;6.90;99.90;;;;;;6132799;23;20583;-86
2021/12/27 10:38:31;;;;;;;91.90;53.90;;;7.00;99.90;;;;;;6133449;23;20166;-87
2021/12/27 10:41:03;;;;;;;89.28;49.95;;;7.00;99.90;;;;;;6108183;23;20249;-86
2021/12/27 10:43:41;;;;;;;89.72;45.70;;;7.00;99.90;;;;;;6131782;23;20162;-86
2021/12/27 10:46:25;;;;;;;83.82;41.60;;;7.10;99.90;;;;;;6131052;23;20163;-86
2021/12/27 10:48:59;;;;;;;86.07;44.63;;;7.20;99.90;;;;;;6106274;23;20151;-86
2021/12/27 10:51:27;;;;;;;84.32;38.90;;;7.20;99.90;;;;;;6105905;23;20241;-87
2021/12/27 10:53:55;;;;;;;83.43;37.22;;;7.30;99.90;;;;;;6132164;23;20163;-86
2021/12/27 10:56:24;;;;;;;79.28;31.05;;;7.20;99.90;;;;;;6105861;23;20186;-87
2021/12/27 10:58:55;;;;;;;79.55;31.45;;;7.20;99.90;;;;;;6132149;23;20265;-86
2021/12/27 11:01:23;;;;;;;79.38;26.55;;;7.10;99.90;;;;;;6105799;23;20158;-86
2021/12/27 11:04:14;;;;;;;80.10;29.88;;;7.10;99.90;;;;;;6131275;23;20242;-86
2021/12/27 11:06:41;;;;;;;79.00;28.27;;;7.00;99.90;;;;;;6105086;23;20229;-86
2021/12/27 11:09:06;;;;;;;76.47;25.30;;;7.00;99.90;;;;;;6131425;23;20552;-86
2021/12/27 11:11:32;;;;;;;81.00;34.47;;;6.90;99.90;;;;;;6131772;23;20150;-87
2021/12/27 11:13:58;;;;;;;78.97;30.20;;;6.90;99.90;;;;;;6105613;23;20398;-87
2021/12/27 11:16:26;;;;;;;77.23;27.03;;;6.90;99.90;;;;;;6105874;23;20201;-87
2021/12/27 11:18:53;;;;;;;80.40;33.55;;;6.90;99.90;;;;;;6130924;23;20391;-87
2021/12/27 11:21:22;;;;;;;79.28;33.50;;;6.90;99.90;;;;;;6130955;23;20484;-86
2021/12/27 11:23:50;;;;;;;81.47;37.55;;;6.90;99.90;;;;;;6130620;23;20158;-86
2021/12/27 11:26:23;;;;;;;76.07;26.50;;;6.90;99.90;;;;;;6104869;23;20150;-86
2021/12/27 11:28:49;;;;;;;78.93;28.70;;;7.00;99.90;;;;;;6131140;23;20141;-86
2021/12/27 11:31:19;;;;;;;81.03;31.40;;;7.00;99.90;;;;;;6105967;23;20151;-87
2021/12/27 11:34:06;;;;;;;77.40;27.02;;;7.10;99.90;;;;;;6131622;23;20631;-86
2021/12/27 11:36:37;;;;;;;78.18;29.63;;;7.20;99.90;;;;;;6131180;23;20312;-87
2021/12/27 11:39:21;;;;;;;78.38;27.15;;;7.30;99.90;;;;;;6132112;23;20155;-87
2021/12/27 11:42:03;;;;;;;85.68;33.63;;;7.30;99.90;;;;;;6105079;23;20146;-86
2021/12/27 11:44:40;;;;;;;76.82;28.35;;;7.40;99.90;;;;;;6104631;23;20172;-86
2021/12/27 11:47:11;;;;;;;79.35;29.33;;;7.40;99.90;;;;;;6130527;23;20245;-87
2021/12/27 11:49:42;;;;;;;86.93;42.70;;;7.40;99.90;;;;;;6130677;23;20458;-87
2021/12/27 11:52:18;;;;;;;85.45;39.15;;;7.40;99.90;;;;;;6132500;23;20157;-87
2021/12/27 11:54:53;;;;;;;78.80;31.83;;;7.50;99.90;;;;;;6105244;23;20253;-86
2021/12/27 11:57:53;;;;;;;79.25;35.22;;;7.60;99.90;;;;;;6105112;23;20562;-87
2021/12/27 12:00:18;;;;;;;84.20;43.20;;;7.60;99.90;;;;;;6099855;23;20154;-86
2021/12/27 12:03:15;;;;;;;84.90;48.13;;;7.70;99.90;;;;;;6131295;23;20138;-87
2021/12/27 12:05:45;;;;;;;84.97;49.10;;;7.70;99.90;;;;;;6085961;23;20158;-87
2021/12/27 12:08:27;;;;;;;89.65;55.17;;;7.80;99.90;;;;;;6104541;23;20158;-87
2021/12/27 12:11:02;;;;;;;87.75;59.10;;;7.90;99.90;;;;;;6132131;23;20151;-87
2021/12/27 12:13:39;;;;;;;86.30;53.08;;;7.90;99.90;;;;;;6132931;23;20182;-87
2021/12/27 12:16:15;;;;;;;85.85;55.75;;;7.90;99.90;;;;;;6132045;23;20130;-86
2021/12/27 12:19:09;;;;;;;88.13;58.15;;;7.80;99.90;;;;;;6131332;23;20139;-87
2021/12/27 12:21:43;;;;;;;89.75;60.72;;;7.90;99.90;;;;;;6107153;23;20534;-87
2021/12/27 12:24:12;;;;;;;91.95;75.80;;;8.00;99.90;;;;;;6133398;23;20166;-87
2021/12/27 12:26:51;;;;;;;88.47;60.22;;;8.00;99.90;;;;;;6133826;23;20174;-87
2021/12/27 12:29:17;;;;;;;89.85;61.78;;;8.00;99.90;;;;;;6106505;23;20196;-86
2021/12/27 12:31:42;;;;;;;91.53;72.73;;;8.00;99.90;;;;;;6107485;23;20154;-87
2021/12/27 12:34:19;;;;;;;91.27;69.27;;;8.00;99.90;;;;;;6132525;23;20529;-87
2021/12/27 12:37:14;;;;;;;86.93;60.78;;;8.00;99.90;;;;;;6106606;23;20518;-87
2021/12/27 12:39:50;;;;;;;88.25;60.97;;;8.10;99.90;;;;;;6133392;23;20127;-87
2021/12/27 12:42:42;;;;;;;86.18;55.70;;;8.00;99.90;;;;;;6133049;23;20157;-86
2021/12/27 12:45:10;;;;;;;86.15;55.22;;;8.00;99.90;;;;;;6105161;23;20228;-87
2021/12/27 12:47:42;;;;;;;98.35;78.28;;;8.00;99.90;;;;;;6107534;23;20158;-87
2021/12/27 12:50:16;;;;;;;92.70;71.63;;;8.10;99.90;;;;;;6106451;23;20155;-87
2021/12/27 12:52:50;;;;;;;87.10;57.97;;;8.00;99.90;;;;;;6133840;23;20138;-87
2021/12/27 12:55:20;;;;;;;87.38;59.70;;;8.00;99.90;;;;;;6106159;23;20170;-87
2021/12/27 12:57:50;;;;;;;86.90;58.83;;;8.10;99.90;;;;;;6132427;23;20166;-87